Walford, IA

4:15 AM CST on November 22, 2014 (GMT -0600)
The Eastern Iowa Airport | Change Station
CLOSE
Current Station
Airport
Location: Cedar Rapids,
Elevation: 866 ft
Nearby Weather Stations
Active Advisory: Freezing Rain Advisory Active Notice: Record Report

Elev 866 ft 41.88 °N, 91.71 °W | Updated 9 minutes ago

Overcast
Overcast
33 °F
Feels Like 26 °F
N
8
Wind Variable Wind from South

Today
High -- | Low -- °F
--% Chance of Precip.
Yesterday
High -- | Low -- °F
Precip. -- in
7:05 AM 4:41 PM
Waning Crescent, 0% visible
Pressure 29.97 in
Visibility 2.5 miles
Clouds Overcast 600 ft
Windchill 26 °F
Dew Point 33 °F
Humidity 100%
Rainfall 0.00 in
Snow Depth Not available.
UV 0 out of 12
Pollen .10 out of 12
Air Quality Not available.
Flu Activity Not available.
SPECI KCID 221006Z AUTO 19007KT 2 1/2SM -RA BR OVC006 01/01 A2997 RMK AO2 RAB01 P0000 T00060006

More Conditions Fewer Conditions

Pressure 29.97 in
Visibility 2.5 miles
Clouds Overcast 600 ft
Windchill 26 °F
Dew Point 33 °F
Humidity 100%
Rainfall 0.00 in
Snow Depth Not available.
UV 0 out of 12
Pollen .10 out of 12
Air Quality Not available.
Flu Activity Not available.
SPECI KCID 221006Z AUTO 19007KT 2 1/2SM -RA BR OVC006 01/01 A2997 RMK AO2 RAB01 P0000 T00060006

More Conditions Fewer Conditions

10-Day Weather Forecast

Almanac

Astronomy

Nov. 22, 2014 Rise Set
Actual Time
Civil Twilight
Nautical Twilight
Astronomical Twilight
Moon
Length of Visible Light
Length of Day
Tomorrow will be .
, % of the Moon is Illuminated

Today's Extremes

State Highs State Lows

Community

WunderPhotos

Upload Photos

1,772,799 photos uploaded!

WunderBlogs® & News

Nearby

Air Quality

  Air Quality AQ Index Pollutant
Not available.

Snow Depth

Station Depth Elevation

Earthquake Activity

City Distance Mag. Time & Date
Minimum magnitude displayed is 2.5.

Coastal Water Temperatures

Place Temperature

Nearby Weather Stations